sensor_id;sensor_type;location;lat;lon;timestamp;P1;durP1;ratioP1;P2;durP2;ratioP2
39078;SDS011;24829;49.208;12.080;2022-11-02T00:00:48;199.50;;;41.53;;
39078;SDS011;24829;49.208;12.080;2022-11-02T00:03:14;178.73;;;39.72;;
39078;SDS011;24829;49.208;12.080;2022-11-02T00:05:40;141.73;;;38.53;;
39078;SDS011;24829;49.208;12.080;2022-11-02T00:08:05;179.70;;;42.80;;
39078;SDS011;24829;49.208;12.080;2022-11-02T00:10:31;175.10;;;42.95;;
39078;SDS011;24829;49.208;12.080;2022-11-02T00:12:56;212.02;;;44.85;;
39078;SDS011;24829;49.208;12.080;2022-11-02T00:15:23;266.95;;;47.42;;
39078;SDS011;24829;49.208;12.080;2022-11-02T00:17:52;79.10;;;32.85;;
39078;SDS011;24829;49.208;12.080;2022-11-02T00:20:22;273.40;;;47.17;;
39078;SDS011;24829;49.208;12.080;2022-11-02T00:22:50;130.60;;;38.50;;
39078;SDS011;24829;49.208;12.080;2022-11-02T00:25:19;148.27;;;33.65;;
39078;SDS011;24829;49.208;12.080;2022-11-02T00:27:47;156.52;;;38.67;;
39078;SDS011;24829;49.208;12.080;2022-11-02T00:30:13;133.82;;;33.00;;
39078;SDS011;24829;49.208;12.080;2022-11-02T00:32:38;141.27;;;36.30;;
39078;SDS011;24829;49.208;12.080;2022-11-02T00:35:04;177.68;;;36.25;;
39078;SDS011;24829;49.208;12.080;2022-11-02T00:37:30;93.47;;;33.58;;
39078;SDS011;24829;49.208;12.080;2022-11-02T00:39:56;89.38;;;30.85;;
39078;SDS011;24829;49.208;12.080;2022-11-02T00:42:21;136.25;;;31.58;;
39078;SDS011;24829;49.208;12.080;2022-11-02T00:44:47;116.55;;;32.00;;
39078;SDS011;24829;49.208;12.080;2022-11-02T00:47:12;130.40;;;33.35;;
39078;SDS011;24829;49.208;12.080;2022-11-02T00:49:38;88.15;;;30.13;;
39078;SDS011;24829;49.208;12.080;2022-11-02T00:52:04;131.73;;;32.45;;
39078;SDS011;24829;49.208;12.080;2022-11-02T00:54:29;147.45;;;35.25;;
39078;SDS011;24829;49.208;12.080;2022-11-02T00:56:55;170.80;;;36.15;;
39078;SDS011;24829;49.208;12.080;2022-11-02T00:59:21;130.77;;;34.30;;
39078;SDS011;24829;49.208;12.080;2022-11-02T01:01:46;167.70;;;34.50;;
39078;SDS011;24829;49.208;12.080;2022-11-02T01:04:13;72.95;;;28.90;;
39078;SDS011;24829;49.208;12.080;2022-11-02T01:06:40;70.63;;;28.85;;
39078;SDS011;24829;49.208;12.080;2022-11-02T01:09:06;64.30;;;27.38;;
39078;SDS011;24829;49.208;12.080;2022-11-02T01:11:32;100.03;;;28.17;;
39078;SDS011;24829;49.208;12.080;2022-11-02T01:13:58;73.30;;;27.50;;
39078;SDS011;24829;49.208;12.080;2022-11-02T01:16:24;115.75;;;30.08;;
39078;SDS011;24829;49.208;12.080;2022-11-02T01:18:51;145.48;;;30.08;;
39078;SDS011;24829;49.208;12.080;2022-11-02T01:21:17;157.52;;;32.17;;
39078;SDS011;24829;49.208;12.080;2022-11-02T01:23:43;108.93;;;27.08;;
39078;SDS011;24829;49.208;12.080;2022-11-02T01:26:09;115.88;;;32.67;;
39078;SDS011;24829;49.208;12.080;2022-11-02T01:28:36;152.80;;;34.13;;
39078;SDS011;24829;49.208;12.080;2022-11-02T01:31:02;94.45;;;29.38;;
39078;SDS011;24829;49.208;12.080;2022-11-02T01:33:27;167.40;;;35.95;;
39078;SDS011;24829;49.208;12.080;2022-11-02T01:35:53;215.88;;;39.95;;
39078;SDS011;24829;49.208;12.080;2022-11-02T01:38:19;171.25;;;30.45;;
39078;SDS011;24829;49.208;12.080;2022-11-02T01:40:45;93.05;;;29.85;;
39078;SDS011;24829;49.208;12.080;2022-11-02T01:43:50;210.05;;;37.85;;
39078;SDS011;24829;49.208;12.080;2022-11-02T01:48:40;152.52;;;33.55;;
39078;SDS011;24829;49.208;12.080;2022-11-02T01:51:25;158.07;;;35.00;;
39078;SDS011;24829;49.208;12.080;2022-11-02T01:53:55;55.17;;;25.40;;
39078;SDS011;24829;49.208;12.080;2022-11-02T01:56:24;131.48;;;32.97;;
39078;SDS011;24829;49.208;12.080;2022-11-02T01:58:56;194.98;;;35.63;;
39078;SDS011;24829;49.208;12.080;2022-11-02T02:03:53;95.93;;;26.95;;
39078;SDS011;24829;49.208;12.080;2022-11-02T02:06:21;60.97;;;25.45;;
39078;SDS011;24829;49.208;12.080;2022-11-02T02:08:50;189.80;;;34.72;;
39078;SDS011;24829;49.208;12.080;2022-11-02T02:11:30;236.10;;;35.17;;
39078;SDS011;24829;49.208;12.080;2022-11-02T02:13:58;121.10;;;29.98;;
39078;SDS011;24829;49.208;12.080;2022-11-02T02:16:45;75.88;;;25.98;;
39078;SDS011;24829;49.208;12.080;2022-11-02T02:19:58;119.43;;;28.15;;
39078;SDS011;24829;49.208;12.080;2022-11-02T02:22:15;84.07;;;22.77;;
39078;SDS011;24829;49.208;12.080;2022-11-02T02:30:19;55.97;;;23.80;;
39078;SDS011;24829;49.208;12.080;2022-11-02T02:33:08;42.70;;;23.30;;
39078;SDS011;24829;49.208;12.080;2022-11-02T02:38:06;86.60;;;24.75;;
39078;SDS011;24829;49.208;12.080;2022-11-02T02:40:36;121.72;;;29.17;;
39078;SDS011;24829;49.208;12.080;2022-11-02T02:43:14;113.97;;;28.60;;
39078;SDS011;24829;49.208;12.080;2022-11-02T02:45:56;40.50;;;22.30;;
39078;SDS011;24829;49.208;12.080;2022-11-02T02:48:30;114.53;;;27.15;;
39078;SDS011;24829;49.208;12.080;2022-11-02T02:51:00;54.53;;;23.33;;
39078;SDS011;24829;49.208;12.080;2022-11-02T02:53:37;60.88;;;23.30;;
39078;SDS011;24829;49.208;12.080;2022-11-02T02:58:43;43.40;;;22.35;;
39078;SDS011;24829;49.208;12.080;2022-11-02T03:01:13;85.00;;;25.98;;
39078;SDS011;24829;49.208;12.080;2022-11-02T03:03:39;44.13;;;21.85;;
39078;SDS011;24829;49.208;12.080;2022-11-02T03:08:42;58.42;;;23.17;;
39078;SDS011;24829;49.208;12.080;2022-11-02T03:11:27;45.67;;;21.40;;
39078;SDS011;24829;49.208;12.080;2022-11-02T03:16:39;64.28;;;24.58;;
39078;SDS011;24829;49.208;12.080;2022-11-02T03:19:14;67.32;;;23.30;;
39078;SDS011;24829;49.208;12.080;2022-11-02T03:22:04;79.85;;;23.85;;
39078;SDS011;24829;49.208;12.080;2022-11-02T03:24:49;40.25;;;20.95;;
39078;SDS011;24829;49.208;12.080;2022-11-02T03:27:18;51.90;;;21.13;;
39078;SDS011;24829;49.208;12.080;2022-11-02T03:30:14;32.88;;;20.08;;
39078;SDS011;24829;49.208;12.080;2022-11-02T03:32:52;34.60;;;20.42;;
39078;SDS011;24829;49.208;12.080;2022-11-02T03:35:36;61.35;;;20.65;;
39078;SDS011;24829;49.208;12.080;2022-11-02T03:38:15;27.08;;;16.80;;
39078;SDS011;24829;49.208;12.080;2022-11-02T03:40:51;29.92;;;17.55;;
39078;SDS011;24829;49.208;12.080;2022-11-02T03:43:19;77.57;;;19.10;;
39078;SDS011;24829;49.208;12.080;2022-11-02T03:45:49;83.95;;;20.17;;
39078;SDS011;24829;49.208;12.080;2022-11-02T03:48:20;33.05;;;15.95;;
39078;SDS011;24829;49.208;12.080;2022-11-02T03:50:49;74.07;;;19.23;;
39078;SDS011;24829;49.208;12.080;2022-11-02T03:53:20;49.72;;;19.95;;
39078;SDS011;24829;49.208;12.080;2022-11-02T03:56:10;70.18;;;19.33;;
39078;SDS011;24829;49.208;12.080;2022-11-02T03:58:44;189.15;;;21.67;;
39078;SDS011;24829;49.208;12.080;2022-11-02T04:01:09;143.88;;;20.60;;
39078;SDS011;24829;49.208;12.080;2022-11-02T04:03:37;210.82;;;23.38;;
39078;SDS011;24829;49.208;12.080;2022-11-02T04:06:07;228.25;;;23.30;;
39078;SDS011;24829;49.208;12.080;2022-11-02T04:08:36;177.85;;;22.42;;
39078;SDS011;24829;49.208;12.080;2022-11-02T04:11:04;119.03;;;21.50;;
39078;SDS011;24829;49.208;12.080;2022-11-02T04:13:49;124.50;;;21.52;;
39078;SDS011;24829;49.208;12.080;2022-11-02T04:16:33;41.60;;;17.20;;
39078;SDS011;24829;49.208;12.080;2022-11-02T04:18:59;44.40;;;16.13;;
39078;SDS011;24829;49.208;12.080;2022-11-02T04:21:47;43.72;;;14.45;;
39078;SDS011;24829;49.208;12.080;2022-11-02T04:24:32;97.30;;;15.95;;
39078;SDS011;24829;49.208;12.080;2022-11-02T04:27:27;60.10;;;14.75;;
39078;SDS011;24829;49.208;12.080;2022-11-02T04:29:53;42.35;;;14.27;;
39078;SDS011;24829;49.208;12.080;2022-11-02T04:32:18;61.03;;;13.77;;
39078;SDS011;24829;49.208;12.080;2022-11-02T04:35:04;29.83;;;14.27;;
39078;SDS011;24829;49.208;12.080;2022-11-02T04:37:30;33.38;;;15.43;;
39078;SDS011;24829;49.208;12.080;2022-11-02T04:40:14;47.78;;;14.30;;
39078;SDS011;24829;49.208;12.080;2022-11-02T04:42:40;80.05;;;17.70;;
39078;SDS011;24829;49.208;12.080;2022-11-02T04:45:09;126.85;;;20.75;;
39078;SDS011;24829;49.208;12.080;2022-11-02T04:47:35;96.90;;;18.35;;
39078;SDS011;24829;49.208;12.080;2022-11-02T04:50:00;209.10;;;23.42;;
39078;SDS011;24829;49.208;12.080;2022-11-02T04:52:26;96.35;;;20.67;;
39078;SDS011;24829;49.208;12.080;2022-11-02T04:54:51;97.05;;;22.48;;
39078;SDS011;24829;49.208;12.080;2022-11-02T04:57:17;355.10;;;33.10;;
39078;SDS011;24829;49.208;12.080;2022-11-02T04:59:42;139.95;;;24.67;;
39078;SDS011;24829;49.208;12.080;2022-11-02T05:02:08;214.25;;;30.27;;
39078;SDS011;24829;49.208;12.080;2022-11-02T05:04:33;143.93;;;26.00;;
39078;SDS011;24829;49.208;12.080;2022-11-02T05:06:59;219.55;;;25.75;;
39078;SDS011;24829;49.208;12.080;2022-11-02T05:09:24;197.60;;;23.30;;
39078;SDS011;24829;49.208;12.080;2022-11-02T05:11:50;166.43;;;23.17;;
39078;SDS011;24829;49.208;12.080;2022-11-02T05:14:16;172.98;;;22.88;;
39078;SDS011;24829;49.208;12.080;2022-11-02T05:16:41;170.32;;;22.17;;
39078;SDS011;24829;49.208;12.080;2022-11-02T05:19:07;212.88;;;22.13;;
39078;SDS011;24829;49.208;12.080;2022-11-02T05:21:32;113.35;;;20.67;;
39078;SDS011;24829;49.208;12.080;2022-11-02T05:23:58;40.70;;;17.63;;
39078;SDS011;24829;49.208;12.080;2022-11-02T05:26:23;52.42;;;18.40;;
39078;SDS011;24829;49.208;12.080;2022-11-02T05:28:49;61.45;;;18.98;;
39078;SDS011;24829;49.208;12.080;2022-11-02T05:31:16;52.97;;;18.60;;
39078;SDS011;24829;49.208;12.080;2022-11-02T05:33:42;57.15;;;17.35;;
39078;SDS011;24829;49.208;12.080;2022-11-02T05:36:08;53.20;;;17.27;;
39078;SDS011;24829;49.208;12.080;2022-11-02T05:38:33;27.50;;;15.80;;
39078;SDS011;24829;49.208;12.080;2022-11-02T05:40:59;30.13;;;16.30;;
39078;SDS011;24829;49.208;12.080;2022-11-02T05:43:25;24.23;;;15.82;;
39078;SDS011;24829;49.208;12.080;2022-11-02T05:45:58;28.33;;;15.90;;
39078;SDS011;24829;49.208;12.080;2022-11-02T05:48:25;25.10;;;13.80;;
39078;SDS011;24829;49.208;12.080;2022-11-02T05:50:55;22.13;;;13.40;;
39078;SDS011;24829;49.208;12.080;2022-11-02T05:53:25;33.35;;;16.85;;
39078;SDS011;24829;49.208;12.080;2022-11-02T05:55:52;27.25;;;14.93;;
39078;SDS011;24829;49.208;12.080;2022-11-02T05:58:21;28.73;;;15.57;;
39078;SDS011;24829;49.208;12.080;2022-11-02T06:00:47;32.65;;;16.15;;
39078;SDS011;24829;49.208;12.080;2022-11-02T06:03:12;34.60;;;17.73;;
39078;SDS011;24829;49.208;12.080;2022-11-02T06:05:38;34.53;;;17.40;;
39078;SDS011;24829;49.208;12.080;2022-11-02T06:08:03;24.45;;;14.55;;
39078;SDS011;24829;49.208;12.080;2022-11-02T06:10:29;27.55;;;16.02;;
39078;SDS011;24829;49.208;12.080;2022-11-02T06:12:56;29.70;;;15.77;;
39078;SDS011;24829;49.208;12.080;2022-11-02T06:15:23;28.55;;;14.27;;
39078;SDS011;24829;49.208;12.080;2022-11-02T06:17:49;21.95;;;14.15;;
39078;SDS011;24829;49.208;12.080;2022-11-02T06:20:15;25.92;;;13.98;;
39078;SDS011;24829;49.208;12.080;2022-11-02T06:22:41;28.02;;;16.33;;
39078;SDS011;24829;49.208;12.080;2022-11-02T06:25:08;32.00;;;16.02;;
39078;SDS011;24829;49.208;12.080;2022-11-02T06:27:34;28.02;;;15.55;;
39078;SDS011;24829;49.208;12.080;2022-11-02T06:30:00;27.08;;;16.02;;
39078;SDS011;24829;49.208;12.080;2022-11-02T06:32:26;31.27;;;20.77;;
39078;SDS011;24829;49.208;12.080;2022-11-02T06:34:52;29.73;;;18.80;;
39078;SDS011;24829;49.208;12.080;2022-11-02T06:37:17;30.50;;;19.90;;
39078;SDS011;24829;49.208;12.080;2022-11-02T06:39:43;27.95;;;17.60;;
39078;SDS011;24829;49.208;12.080;2022-11-02T06:42:09;30.13;;;16.42;;
39078;SDS011;24829;49.208;12.080;2022-11-02T06:44:34;33.42;;;18.63;;
39078;SDS011;24829;49.208;12.080;2022-11-02T06:47:00;25.02;;;16.33;;
39078;SDS011;24829;49.208;12.080;2022-11-02T06:49:25;26.58;;;15.60;;
39078;SDS011;24829;49.208;12.080;2022-11-02T06:51:51;30.33;;;15.77;;
39078;SDS011;24829;49.208;12.080;2022-11-02T06:54:17;28.85;;;16.30;;
39078;SDS011;24829;49.208;12.080;2022-11-02T06:56:42;26.98;;;15.13;;
39078;SDS011;24829;49.208;12.080;2022-11-02T06:59:08;23.58;;;14.73;;
39078;SDS011;24829;49.208;12.080;2022-11-02T07:01:33;19.98;;;13.20;;
39078;SDS011;24829;49.208;12.080;2022-11-02T07:03:59;21.90;;;12.82;;
39078;SDS011;24829;49.208;12.080;2022-11-02T07:06:26;21.20;;;12.60;;
39078;SDS011;24829;49.208;12.080;2022-11-02T07:08:51;21.70;;;13.05;;
39078;SDS011;24829;49.208;12.080;2022-11-02T07:11:17;19.75;;;11.43;;
39078;SDS011;24829;49.208;12.080;2022-11-02T07:13:43;16.63;;;10.68;;
39078;SDS011;24829;49.208;12.080;2022-11-02T07:16:09;20.48;;;12.10;;
39078;SDS011;24829;49.208;12.080;2022-11-02T07:18:34;15.73;;;10.52;;
39078;SDS011;24829;49.208;12.080;2022-11-02T07:21:00;14.45;;;9.10;;
39078;SDS011;24829;49.208;12.080;2022-11-02T07:23:26;14.25;;;9.80;;
39078;SDS011;24829;49.208;12.080;2022-11-02T07:25:52;17.77;;;10.10;;
39078;SDS011;24829;49.208;12.080;2022-11-02T07:28:18;16.70;;;10.02;;
39078;SDS011;24829;49.208;12.080;2022-11-02T07:30:43;12.27;;;8.55;;
39078;SDS011;24829;49.208;12.080;2022-11-02T07:33:09;15.55;;;9.43;;
39078;SDS011;24829;49.208;12.080;2022-11-02T07:35:35;12.13;;;8.88;;
39078;SDS011;24829;49.208;12.080;2022-11-02T07:38:01;13.10;;;8.93;;
39078;SDS011;24829;49.208;12.080;2022-11-02T07:40:30;14.40;;;9.80;;
39078;SDS011;24829;49.208;12.080;2022-11-02T07:42:57;22.23;;;8.30;;
39078;SDS011;24829;49.208;12.080;2022-11-02T07:45:23;16.08;;;9.13;;
39078;SDS011;24829;49.208;12.080;2022-11-02T07:47:49;12.15;;;7.75;;
39078;SDS011;24829;49.208;12.080;2022-11-02T07:50:16;12.15;;;7.18;;
39078;SDS011;24829;49.208;12.080;2022-11-02T07:52:44;10.10;;;7.68;;
39078;SDS011;24829;49.208;12.080;2022-11-02T07:55:12;11.07;;;8.40;;
39078;SDS011;24829;49.208;12.080;2022-11-02T07:57:38;7.60;;;6.60;;
39078;SDS011;24829;49.208;12.080;2022-11-02T08:00:04;10.38;;;6.38;;
39078;SDS011;24829;49.208;12.080;2022-11-02T08:02:31;9.73;;;5.65;;
39078;SDS011;24829;49.208;12.080;2022-11-02T08:04:56;7.63;;;6.28;;
39078;SDS011;24829;49.208;12.080;2022-11-02T08:07:22;8.80;;;6.15;;
39078;SDS011;24829;49.208;12.080;2022-11-02T08:09:47;10.60;;;4.82;;
39078;SDS011;24829;49.208;12.080;2022-11-02T08:12:13;8.70;;;5.18;;
39078;SDS011;24829;49.208;12.080;2022-11-02T08:14:38;7.32;;;4.68;;
39078;SDS011;24829;49.208;12.080;2022-11-02T08:17:04;5.72;;;3.88;;
39078;SDS011;24829;49.208;12.080;2022-11-02T08:19:29;4.93;;;3.63;;
39078;SDS011;24829;49.208;12.080;2022-11-02T08:21:55;7.85;;;4.85;;
39078;SDS011;24829;49.208;12.080;2022-11-02T08:24:20;8.80;;;4.47;;
39078;SDS011;24829;49.208;12.080;2022-11-02T08:26:46;6.97;;;4.60;;
39078;SDS011;24829;49.208;12.080;2022-11-02T08:29:11;6.75;;;4.28;;
39078;SDS011;24829;49.208;12.080;2022-11-02T08:31:37;8.18;;;4.38;;
39078;SDS011;24829;49.208;12.080;2022-11-02T08:34:03;8.40;;;4.25;;
39078;SDS011;24829;49.208;12.080;2022-11-02T08:36:28;6.72;;;3.88;;
39078;SDS011;24829;49.208;12.080;2022-11-02T08:38:54;12.25;;;5.65;;
39078;SDS011;24829;49.208;12.080;2022-11-02T08:41:19;8.52;;;4.60;;
39078;SDS011;24829;49.208;12.080;2022-11-02T08:43:45;5.57;;;4.13;;
39078;SDS011;24829;49.208;12.080;2022-11-02T08:46:10;5.97;;;3.50;;
39078;SDS011;24829;49.208;12.080;2022-11-02T08:48:36;11.63;;;4.32;;
39078;SDS011;24829;49.208;12.080;2022-11-02T08:51:01;5.88;;;3.72;;
39078;SDS011;24829;49.208;12.080;2022-11-02T08:53:29;9.35;;;3.78;;
39078;SDS011;24829;49.208;12.080;2022-11-02T08:55:58;7.45;;;3.83;;
39078;SDS011;24829;49.208;12.080;2022-11-02T08:58:23;12.98;;;3.97;;
39078;SDS011;24829;49.208;12.080;2022-11-02T09:00:51;7.43;;;3.70;;
39078;SDS011;24829;49.208;12.080;2022-11-02T09:03:17;7.05;;;3.55;;
39078;SDS011;24829;49.208;12.080;2022-11-02T09:05:44;8.25;;;3.83;;
39078;SDS011;24829;49.208;12.080;2022-11-02T09:08:14;9.02;;;3.20;;
39078;SDS011;24829;49.208;12.080;2022-11-02T09:10:41;8.60;;;3.38;;
39078;SDS011;24829;49.208;12.080;2022-11-02T09:13:09;9.57;;;3.70;;
39078;SDS011;24829;49.208;12.080;2022-11-02T09:15:37;5.90;;;3.50;;
39078;SDS011;24829;49.208;12.080;2022-11-02T09:18:03;8.70;;;4.65;;
39078;SDS011;24829;49.208;12.080;2022-11-02T09:20:30;8.50;;;5.18;;
39078;SDS011;24829;49.208;12.080;2022-11-02T09:22:56;12.73;;;7.75;;
39078;SDS011;24829;49.208;12.080;2022-11-02T09:25:21;12.23;;;8.27;;
39078;SDS011;24829;49.208;12.080;2022-11-02T09:27:50;17.73;;;9.30;;
39078;SDS011;24829;49.208;12.080;2022-11-02T09:30:18;21.58;;;10.73;;
39078;SDS011;24829;49.208;12.080;2022-11-02T09:32:44;12.57;;;8.73;;
39078;SDS011;24829;49.208;12.080;2022-11-02T09:35:17;19.45;;;10.13;;
39078;SDS011;24829;49.208;12.080;2022-11-02T09:37:42;17.70;;;11.10;;
39078;SDS011;24829;49.208;12.080;2022-11-02T09:40:08;15.93;;;11.20;;
39078;SDS011;24829;49.208;12.080;2022-11-02T09:45:19;15.30;;;10.52;;
39078;SDS011;24829;49.208;12.080;2022-11-02T09:47:47;15.15;;;10.10;;
39078;SDS011;24829;49.208;12.080;2022-11-02T09:50:41;20.50;;;9.57;;
39078;SDS011;24829;49.208;12.080;2022-11-02T09:53:46;20.25;;;9.52;;
39078;SDS011;24829;49.208;12.080;2022-11-02T09:56:32;15.13;;;8.20;;
39078;SDS011;24829;49.208;12.080;2022-11-02T09:58:59;10.00;;;5.50;;
39078;SDS011;24829;49.208;12.080;2022-11-02T10:01:37;15.65;;;8.50;;
39078;SDS011;24829;49.208;12.080;2022-11-02T10:04:22;14.15;;;7.72;;
39078;SDS011;24829;49.208;12.080;2022-11-02T10:06:54;14.93;;;7.03;;
39078;SDS011;24829;49.208;12.080;2022-11-02T10:09:34;10.98;;;4.25;;
39078;SDS011;24829;49.208;12.080;2022-11-02T10:12:10;8.52;;;3.10;;
39078;SDS011;24829;49.208;12.080;2022-11-02T10:17:52;6.78;;;2.13;;
39078;SDS011;24829;49.208;12.080;2022-11-02T10:20:26;5.90;;;1.20;;
39078;SDS011;24829;49.208;12.080;2022-11-02T10:23:03;5.53;;;1.10;;
39078;SDS011;24829;49.208;12.080;2022-11-02T10:25:31;7.38;;;1.35;;
39078;SDS011;24829;49.208;12.080;2022-11-02T10:28:02;8.77;;;1.50;;
39078;SDS011;24829;49.208;12.080;2022-11-02T10:30:34;4.53;;;1.27;;
39078;SDS011;24829;49.208;12.080;2022-11-02T10:33:01;8.27;;;1.55;;
39078;SDS011;24829;49.208;12.080;2022-11-02T10:41:19;5.68;;;1.10;;
39078;SDS011;24829;49.208;12.080;2022-11-02T10:43:58;7.18;;;1.25;;
39078;SDS011;24829;49.208;12.080;2022-11-02T10:46:56;8.38;;;1.55;;
39078;SDS011;24829;49.208;12.080;2022-11-02T10:52:32;9.45;;;1.10;;
39078;SDS011;24829;49.208;12.080;2022-11-02T10:55:00;11.13;;;2.47;;
39078;SDS011;24829;49.208;12.080;2022-11-02T10:57:27;4.88;;;1.00;;
39078;SDS011;24829;49.208;12.080;2022-11-02T11:06:22;5.32;;;1.08;;
39078;SDS011;24829;49.208;12.080;2022-11-02T11:11:09;4.93;;;1.05;;
39078;SDS011;24829;49.208;12.080;2022-11-02T11:13:35;4.22;;;0.95;;
39078;SDS011;24829;49.208;12.080;2022-11-02T11:16:02;5.10;;;1.00;;
39078;SDS011;24829;49.208;12.080;2022-11-02T11:18:28;5.25;;;0.90;;
39078;SDS011;24829;49.208;12.080;2022-11-02T11:20:54;4.05;;;0.90;;
39078;SDS011;24829;49.208;12.080;2022-11-02T11:23:21;6.60;;;1.00;;
39078;SDS011;24829;49.208;12.080;2022-11-02T11:25:52;6.93;;;0.90;;
39078;SDS011;24829;49.208;12.080;2022-11-02T11:28:28;4.72;;;0.95;;
39078;SDS011;24829;49.208;12.080;2022-11-02T11:31:01;4.63;;;0.80;;
39078;SDS011;24829;49.208;12.080;2022-11-02T11:33:51;7.70;;;0.90;;
39078;SDS011;24829;49.208;12.080;2022-11-02T11:36:22;5.55;;;1.20;;
39078;SDS011;24829;49.208;12.080;2022-11-02T11:38:51;6.25;;;1.05;;
39078;SDS011;24829;49.208;12.080;2022-11-02T11:41:20;7.03;;;1.10;;
39078;SDS011;24829;49.208;12.080;2022-11-02T11:43:47;7.70;;;1.17;;
39078;SDS011;24829;49.208;12.080;2022-11-02T11:46:15;5.25;;;0.90;;
39078;SDS011;24829;49.208;12.080;2022-11-02T11:48:44;5.95;;;1.10;;
39078;SDS011;24829;49.208;12.080;2022-11-02T11:51:26;4.67;;;1.30;;
39078;SDS011;24829;49.208;12.080;2022-11-02T11:56:48;3.22;;;0.90;;
39078;SDS011;24829;49.208;12.080;2022-11-02T12:01:52;5.63;;;1.20;;
39078;SDS011;24829;49.208;12.080;2022-11-02T12:04:33;6.68;;;1.23;;
39078;SDS011;24829;49.208;12.080;2022-11-02T12:07:13;7.10;;;1.50;;
39078;SDS011;24829;49.208;12.080;2022-11-02T12:10:03;4.15;;;0.90;;
39078;SDS011;24829;49.208;12.080;2022-11-02T12:40:53;4.45;;;1.15;;
39078;SDS011;24829;49.208;12.080;2022-11-02T12:43:37;5.55;;;1.00;;
39078;SDS011;24829;49.208;12.080;2022-11-02T12:48:52;5.90;;;1.13;;
39078;SDS011;24829;49.208;12.080;2022-11-02T12:51:43;3.95;;;0.80;;
39078;SDS011;24829;49.208;12.080;2022-11-02T12:54:20;5.93;;;0.93;;
39078;SDS011;24829;49.208;12.080;2022-11-02T12:56:52;4.78;;;1.27;;
39078;SDS011;24829;49.208;12.080;2022-11-02T12:59:22;6.00;;;1.20;;
39078;SDS011;24829;49.208;12.080;2022-11-02T13:01:55;3.83;;;1.08;;
39078;SDS011;24829;49.208;12.080;2022-11-02T13:04:34;12.32;;;1.33;;
39078;SDS011;24829;49.208;12.080;2022-11-02T13:07:14;5.72;;;1.10;;
39078;SDS011;24829;49.208;12.080;2022-11-02T13:09:53;5.65;;;1.40;;
39078;SDS011;24829;49.208;12.080;2022-11-02T13:12:31;13.23;;;1.42;;
39078;SDS011;24829;49.208;12.080;2022-11-02T13:15:01;6.47;;;1.10;;
39078;SDS011;24829;49.208;12.080;2022-11-02T13:22:37;6.60;;;1.27;;
39078;SDS011;24829;49.208;12.080;2022-11-02T13:25:13;9.23;;;1.30;;
39078;SDS011;24829;49.208;12.080;2022-11-02T13:27:42;8.02;;;0.88;;
39078;SDS011;24829;49.208;12.080;2022-11-02T13:30:22;4.47;;;1.00;;
39078;SDS011;24829;49.208;12.080;2022-11-02T13:32:49;6.72;;;1.20;;
39078;SDS011;24829;49.208;12.080;2022-11-02T13:35:34;8.10;;;1.45;;
39078;SDS011;24829;49.208;12.080;2022-11-02T13:40:41;8.68;;;1.50;;
39078;SDS011;24829;49.208;12.080;2022-11-02T13:46:01;6.05;;;1.48;;
39078;SDS011;24829;49.208;12.080;2022-11-02T13:51:36;6.30;;;1.40;;
39078;SDS011;24829;49.208;12.080;2022-11-02T13:56:53;7.38;;;1.00;;
39078;SDS011;24829;49.208;12.080;2022-11-02T13:59:22;7.75;;;1.00;;
39078;SDS011;24829;49.208;12.080;2022-11-02T14:02:00;7.55;;;1.15;;
39078;SDS011;24829;49.208;12.080;2022-11-02T14:04:27;5.60;;;1.33;;
39078;SDS011;24829;49.208;12.080;2022-11-02T14:07:01;7.68;;;1.95;;
39078;SDS011;24829;49.208;12.080;2022-11-02T14:28:42;6.80;;;0.80;;
39078;SDS011;24829;49.208;12.080;2022-11-02T14:33:48;7.65;;;1.10;;
39078;SDS011;24829;49.208;12.080;2022-11-02T14:36:47;8.02;;;1.20;;
39078;SDS011;24829;49.208;12.080;2022-11-02T14:42:08;9.43;;;1.73;;
39078;SDS011;24829;49.208;12.080;2022-11-02T14:44:42;6.38;;;0.95;;
39078;SDS011;24829;49.208;12.080;2022-11-02T14:47:30;6.47;;;1.15;;
39078;SDS011;24829;49.208;12.080;2022-11-02T14:50:05;9.50;;;1.73;;
39078;SDS011;24829;49.208;12.080;2022-11-02T14:52:59;7.13;;;1.27;;
39078;SDS011;24829;49.208;12.080;2022-11-02T14:55:34;8.77;;;1.05;;
39078;SDS011;24829;49.208;12.080;2022-11-02T15:05:47;5.95;;;1.40;;
39078;SDS011;24829;49.208;12.080;2022-11-02T15:08:33;8.18;;;1.20;;
39078;SDS011;24829;49.208;12.080;2022-11-02T15:25:05;5.50;;;1.30;;
39078;SDS011;24829;49.208;12.080;2022-11-02T15:27:45;5.28;;;1.23;;
39078;SDS011;24829;49.208;12.080;2022-11-02T15:30:14;6.47;;;1.23;;
39078;SDS011;24829;49.208;12.080;2022-11-02T15:32:44;9.32;;;1.48;;
39078;SDS011;24829;49.208;12.080;2022-11-02T15:35:18;11.48;;;1.38;;
39078;SDS011;24829;49.208;12.080;2022-11-02T15:37:54;8.98;;;1.52;;
39078;SDS011;24829;49.208;12.080;2022-11-02T15:48:54;6.60;;;1.63;;
39078;SDS011;24829;49.208;12.080;2022-11-02T15:51:36;6.82;;;1.60;;
39078;SDS011;24829;49.208;12.080;2022-11-02T16:00:18;6.68;;;1.20;;
39078;SDS011;24829;49.208;12.080;2022-11-02T16:02:53;6.60;;;1.40;;
39078;SDS011;24829;49.208;12.080;2022-11-02T16:05:40;13.75;;;3.10;;
39078;SDS011;24829;49.208;12.080;2022-11-02T16:08:29;19.40;;;7.82;;
39078;SDS011;24829;49.208;12.080;2022-11-02T16:11:20;36.60;;;15.18;;
39078;SDS011;24829;49.208;12.080;2022-11-02T16:14:02;41.35;;;15.43;;
39078;SDS011;24829;49.208;12.080;2022-11-02T16:20:20;25.95;;;11.80;;
39078;SDS011;24829;49.208;12.080;2022-11-02T16:23:25;21.45;;;9.20;;
39078;SDS011;24829;49.208;12.080;2022-11-02T16:29:39;10.88;;;4.65;;
39078;SDS011;24829;49.208;12.080;2022-11-02T16:32:12;10.52;;;4.72;;
39078;SDS011;24829;49.208;12.080;2022-11-02T16:34:46;11.50;;;3.90;;
39078;SDS011;24829;49.208;12.080;2022-11-02T16:37:25;10.73;;;3.42;;
39078;SDS011;24829;49.208;12.080;2022-11-02T16:40:11;12.40;;;5.45;;
39078;SDS011;24829;49.208;12.080;2022-11-02T16:42:51;25.65;;;8.68;;
39078;SDS011;24829;49.208;12.080;2022-11-02T16:45:36;17.30;;;7.05;;
39078;SDS011;24829;49.208;12.080;2022-11-02T16:48:28;14.00;;;5.20;;
39078;SDS011;24829;49.208;12.080;2022-11-02T16:53:45;15.98;;;9.95;;
39078;SDS011;24829;49.208;12.080;2022-11-02T16:56:20;27.65;;;12.98;;
39078;SDS011;24829;49.208;12.080;2022-11-02T16:59:19;41.20;;;21.65;;
39078;SDS011;24829;49.208;12.080;2022-11-02T17:01:53;56.75;;;29.67;;
39078;SDS011;24829;49.208;12.080;2022-11-02T17:04:24;63.03;;;34.08;;
39078;SDS011;24829;49.208;12.080;2022-11-02T17:06:54;53.85;;;26.58;;
39078;SDS011;24829;49.208;12.080;2022-11-02T17:09:25;53.80;;;28.48;;
39078;SDS011;24829;49.208;12.080;2022-11-02T17:12:05;39.65;;;23.88;;
39078;SDS011;24829;49.208;12.080;2022-11-02T17:14:39;26.52;;;14.35;;
39078;SDS011;24829;49.208;12.080;2022-11-02T17:27:47;13.02;;;6.65;;
39078;SDS011;24829;49.208;12.080;2022-11-02T17:32:58;27.98;;;9.10;;
39078;SDS011;24829;49.208;12.080;2022-11-02T17:35:43;14.00;;;6.90;;
39078;SDS011;24829;49.208;12.080;2022-11-02T17:38:10;14.43;;;5.40;;
39078;SDS011;24829;49.208;12.080;2022-11-02T17:40:36;9.90;;;3.75;;